sensor_id;sensor_type;location;lat;lon;timestamp;temperature;humidity
46732;DHT22;32477;51.474;5.696;2023-07-28T00:01:27;17.50;99.90
46732;DHT22;32477;51.474;5.696;2023-07-28T00:03:52;17.50;99.90
46732;DHT22;32477;51.474;5.696;2023-07-28T00:06:18;17.60;99.90
46732;DHT22;32477;51.474;5.696;2023-07-28T00:08:44;17.50;99.90
46732;DHT22;32477;51.474;5.696;2023-07-28T00:11:10;17.60;99.90
46732;DHT22;32477;51.474;5.696;2023-07-28T00:13:38;17.50;99.90
46732;DHT22;32477;51.474;5.696;2023-07-28T00:16:04;17.50;99.90
46732;DHT22;32477;51.474;5.696;2023-07-28T00:18:30;17.60;99.90
46732;DHT22;32477;51.474;5.696;2023-07-28T00:20:55;17.60;99.90
46732;DHT22;32477;51.474;5.696;2023-07-28T00:23:21;17.60;99.90
46732;DHT22;32477;51.474;5.696;2023-07-28T00:25:46;17.50;99.90
46732;DHT22;32477;51.474;5.696;2023-07-28T00:28:12;17.50;99.90
46732;DHT22;32477;51.474;5.696;2023-07-28T00:30:39;17.60;99.90
46732;DHT22;32477;51.474;5.696;2023-07-28T00:33:05;17.50;99.90
46732;DHT22;32477;51.474;5.696;2023-07-28T00:35:30;17.50;99.90
46732;DHT22;32477;51.474;5.696;2023-07-28T00:37:56;17.50;99.90
46732;DHT22;32477;51.474;5.696;2023-07-28T00:40:22;17.60;99.90
46732;DHT22;32477;51.474;5.696;2023-07-28T00:42:48;17.50;99.90
46732;DHT22;32477;51.474;5.696;2023-07-28T00:45:14;17.60;99.90
46732;DHT22;32477;51.474;5.696;2023-07-28T00:47:40;17.60;99.90
46732;DHT22;32477;51.474;5.696;2023-07-28T00:50:07;17.60;99.90
46732;DHT22;32477;51.474;5.696;2023-07-28T00:52:33;17.50;99.90
46732;DHT22;32477;51.474;5.696;2023-07-28T00:55:00;17.60;99.90
46732;DHT22;32477;51.474;5.696;2023-07-28T00:57:26;17.50;99.90
46732;DHT22;32477;51.474;5.696;2023-07-28T00:59:51;17.60;99.90
46732;DHT22;32477;51.474;5.696;2023-07-28T01:02:19;17.60;99.90
46732;DHT22;32477;51.474;5.696;2023-07-28T01:04:45;17.50;99.90
46732;DHT22;32477;51.474;5.696;2023-07-28T01:09:49;17.50;99.90
46732;DHT22;32477;51.474;5.696;2023-07-28T01:12:16;17.60;99.90
46732;DHT22;32477;51.474;5.696;2023-07-28T01:14:43;17.60;99.90
46732;DHT22;32477;51.474;5.696;2023-07-28T01:17:09;17.50;99.90
46732;DHT22;32477;51.474;5.696;2023-07-28T01:19:35;17.50;99.90
46732;DHT22;32477;51.474;5.696;2023-07-28T01:27:42;17.50;99.90
46732;DHT22;32477;51.474;5.696;2023-07-28T01:30:09;17.50;99.90
46732;DHT22;32477;51.474;5.696;2023-07-28T01:32:36;17.60;99.90
46732;DHT22;32477;51.474;5.696;2023-07-28T01:35:04;17.50;99.90
46732;DHT22;32477;51.474;5.696;2023-07-28T01:37:30;17.50;99.90
46732;DHT22;32477;51.474;5.696;2023-07-28T01:39:56;17.60;99.90
46732;DHT22;32477;51.474;5.696;2023-07-28T01:42:23;17.50;99.90
46732;DHT22;32477;51.474;5.696;2023-07-28T01:44:49;17.60;99.90
46732;DHT22;32477;51.474;5.696;2023-07-28T01:47:15;17.60;99.90
46732;DHT22;32477;51.474;5.696;2023-07-28T01:49:41;17.60;99.90
46732;DHT22;32477;51.474;5.696;2023-07-28T01:52:06;17.60;99.90
46732;DHT22;32477;51.474;5.696;2023-07-28T01:54:32;17.60;99.90
46732;DHT22;32477;51.474;5.696;2023-07-28T01:56:58;17.60;99.90
46732;DHT22;32477;51.474;5.696;2023-07-28T01:59:23;17.60;99.90
46732;DHT22;32477;51.474;5.696;2023-07-28T02:01:49;17.60;99.90
46732;DHT22;32477;51.474;5.696;2023-07-28T02:04:14;17.60;99.90
46732;DHT22;32477;51.474;5.696;2023-07-28T02:06:41;17.60;99.90
46732;DHT22;32477;51.474;5.696;2023-07-28T02:09:07;17.60;99.90
46732;DHT22;32477;51.474;5.696;2023-07-28T02:11:33;17.60;99.90
46732;DHT22;32477;51.474;5.696;2023-07-28T02:13:58;17.60;99.90
46732;DHT22;32477;51.474;5.696;2023-07-28T02:16:24;17.60;99.90
46732;DHT22;32477;51.474;5.696;2023-07-28T02:18:53;17.60;99.90
46732;DHT22;32477;51.474;5.696;2023-07-28T02:21:19;17.60;99.90
46732;DHT22;32477;51.474;5.696;2023-07-28T02:23:44;17.60;99.90
46732;DHT22;32477;51.474;5.696;2023-07-28T02:26:10;17.60;99.90
46732;DHT22;32477;51.474;5.696;2023-07-28T02:28:35;17.70;99.90
46732;DHT22;32477;51.474;5.696;2023-07-28T02:31:01;17.60;99.90
46732;DHT22;32477;51.474;5.696;2023-07-28T02:33:27;17.60;99.90
46732;DHT22;32477;51.474;5.696;2023-07-28T02:35:55;17.60;99.90
46732;DHT22;32477;51.474;5.696;2023-07-28T02:38:21;17.70;99.90
46732;DHT22;32477;51.474;5.696;2023-07-28T02:40:47;17.60;99.90
46732;DHT22;32477;51.474;5.696;2023-07-28T02:43:12;17.60;99.90
46732;DHT22;32477;51.474;5.696;2023-07-28T02:45:38;17.60;99.90
46732;DHT22;32477;51.474;5.696;2023-07-28T02:48:04;17.60;99.90
46732;DHT22;32477;51.474;5.696;2023-07-28T02:50:29;17.60;99.90
46732;DHT22;32477;51.474;5.696;2023-07-28T02:52:55;17.70;99.90
46732;DHT22;32477;51.474;5.696;2023-07-28T02:55:20;17.60;99.90
46732;DHT22;32477;51.474;5.696;2023-07-28T02:57:46;17.70;99.90
46732;DHT22;32477;51.474;5.696;2023-07-28T03:00:12;17.70;99.90
46732;DHT22;32477;51.474;5.696;2023-07-28T03:02:38;17.70;99.90
46732;DHT22;32477;51.474;5.696;2023-07-28T03:05:03;17.70;99.90
46732;DHT22;32477;51.474;5.696;2023-07-28T03:07:29;17.70;99.90
46732;DHT22;32477;51.474;5.696;2023-07-28T03:09:55;17.70;99.90
46732;DHT22;32477;51.474;5.696;2023-07-28T03:12:21;17.70;99.90
46732;DHT22;32477;51.474;5.696;2023-07-28T03:14:47;17.70;99.90
46732;DHT22;32477;51.474;5.696;2023-07-28T03:17:12;17.70;99.90
46732;DHT22;32477;51.474;5.696;2023-07-28T03:19:38;17.70;99.90
46732;DHT22;32477;51.474;5.696;2023-07-28T03:22:03;17.70;99.90
46732;DHT22;32477;51.474;5.696;2023-07-28T03:24:29;17.70;99.90
46732;DHT22;32477;51.474;5.696;2023-07-28T03:26:55;17.70;99.90
46732;DHT22;32477;51.474;5.696;2023-07-28T03:29:22;17.70;99.90
46732;DHT22;32477;51.474;5.696;2023-07-28T03:31:47;17.60;99.90
46732;DHT22;32477;51.474;5.696;2023-07-28T03:34:13;17.60;99.90
46732;DHT22;32477;51.474;5.696;2023-07-28T03:36:39;17.70;99.90
46732;DHT22;32477;51.474;5.696;2023-07-28T03:39:04;17.70;99.90
46732;DHT22;32477;51.474;5.696;2023-07-28T03:41:30;17.60;99.90
46732;DHT22;32477;51.474;5.696;2023-07-28T03:43:56;17.70;99.90
46732;DHT22;32477;51.474;5.696;2023-07-28T03:46:22;17.70;99.90
46732;DHT22;32477;51.474;5.696;2023-07-28T03:48:47;17.70;99.90
46732;DHT22;32477;51.474;5.696;2023-07-28T03:51:13;17.70;99.90
46732;DHT22;32477;51.474;5.696;2023-07-28T03:53:38;17.70;99.90
46732;DHT22;32477;51.474;5.696;2023-07-28T03:56:04;17.70;99.90
46732;DHT22;32477;51.474;5.696;2023-07-28T03:58:30;17.70;99.90
46732;DHT22;32477;51.474;5.696;2023-07-28T04:00:56;17.70;99.90
46732;DHT22;32477;51.474;5.696;2023-07-28T04:03:21;17.70;99.90
46732;DHT22;32477;51.474;5.696;2023-07-28T04:05:47;17.70;99.90
46732;DHT22;32477;51.474;5.696;2023-07-28T04:08:12;17.70;99.90
46732;DHT22;32477;51.474;5.696;2023-07-28T04:10:38;17.70;99.90
46732;DHT22;32477;51.474;5.696;2023-07-28T04:13:04;17.70;99.90
46732;DHT22;32477;51.474;5.696;2023-07-28T04:15:29;17.80;99.90
46732;DHT22;32477;51.474;5.696;2023-07-28T04:17:55;17.70;99.90
46732;DHT22;32477;51.474;5.696;2023-07-28T04:20:20;17.80;99.90
46732;DHT22;32477;51.474;5.696;2023-07-28T04:22:46;17.80;99.90
46732;DHT22;32477;51.474;5.696;2023-07-28T04:25:12;17.80;99.90
46732;DHT22;32477;51.474;5.696;2023-07-28T04:27:38;17.80;99.90
46732;DHT22;32477;51.474;5.696;2023-07-28T04:30:04;17.70;99.90
46732;DHT22;32477;51.474;5.696;2023-07-28T04:32:29;17.80;99.90
46732;DHT22;32477;51.474;5.696;2023-07-28T04:34:56;17.80;99.90
46732;DHT22;32477;51.474;5.696;2023-07-28T04:37:22;17.80;99.90
46732;DHT22;32477;51.474;5.696;2023-07-28T04:39:48;17.80;99.90
46732;DHT22;32477;51.474;5.696;2023-07-28T04:42:13;17.80;99.90
46732;DHT22;32477;51.474;5.696;2023-07-28T04:44:39;17.80;99.90
46732;DHT22;32477;51.474;5.696;2023-07-28T04:47:06;17.70;99.90
46732;DHT22;32477;51.474;5.696;2023-07-28T04:49:31;17.80;99.90
46732;DHT22;32477;51.474;5.696;2023-07-28T04:51:57;17.80;99.90
46732;DHT22;32477;51.474;5.696;2023-07-28T04:54:23;17.80;99.90
46732;DHT22;32477;51.474;5.696;2023-07-28T04:56:48;17.80;99.90
46732;DHT22;32477;51.474;5.696;2023-07-28T04:59:18;17.80;99.90
46732;DHT22;32477;51.474;5.696;2023-07-28T05:01:44;17.80;99.90
46732;DHT22;32477;51.474;5.696;2023-07-28T05:04:09;17.80;99.90
46732;DHT22;32477;51.474;5.696;2023-07-28T05:06:35;17.80;99.90
46732;DHT22;32477;51.474;5.696;2023-07-28T05:09:01;17.80;99.90
46732;DHT22;32477;51.474;5.696;2023-07-28T05:11:27;17.80;99.90
46732;DHT22;32477;51.474;5.696;2023-07-28T05:13:52;17.80;99.90
46732;DHT22;32477;51.474;5.696;2023-07-28T05:16:18;17.90;99.90
46732;DHT22;32477;51.474;5.696;2023-07-28T05:18:43;17.90;99.90
46732;DHT22;32477;51.474;5.696;2023-07-28T05:21:09;17.90;99.90
46732;DHT22;32477;51.474;5.696;2023-07-28T05:23:35;17.80;99.90
46732;DHT22;32477;51.474;5.696;2023-07-28T05:26:01;17.90;99.90
46732;DHT22;32477;51.474;5.696;2023-07-28T05:28:26;17.90;99.90
46732;DHT22;32477;51.474;5.696;2023-07-28T05:30:52;17.90;99.90
46732;DHT22;32477;51.474;5.696;2023-07-28T05:33:18;17.90;99.90
46732;DHT22;32477;51.474;5.696;2023-07-28T05:35:43;17.90;99.90
46732;DHT22;32477;51.474;5.696;2023-07-28T05:38:09;17.90;99.90
46732;DHT22;32477;51.474;5.696;2023-07-28T05:40:34;18.00;99.90
46732;DHT22;32477;51.474;5.696;2023-07-28T05:43:00;18.00;99.90
46732;DHT22;32477;51.474;5.696;2023-07-28T05:45:26;18.00;99.90
46732;DHT22;32477;51.474;5.696;2023-07-28T05:47:51;18.00;99.90
46732;DHT22;32477;51.474;5.696;2023-07-28T05:50:18;18.10;99.90
46732;DHT22;32477;51.474;5.696;2023-07-28T05:52:44;18.10;99.90
46732;DHT22;32477;51.474;5.696;2023-07-28T05:55:09;18.10;99.90
46732;DHT22;32477;51.474;5.696;2023-07-28T05:57:35;18.20;99.90
46732;DHT22;32477;51.474;5.696;2023-07-28T06:00:00;18.20;99.90
46732;DHT22;32477;51.474;5.696;2023-07-28T06:02:26;18.20;99.90
46732;DHT22;32477;51.474;5.696;2023-07-28T06:04:53;18.30;99.90
46732;DHT22;32477;51.474;5.696;2023-07-28T06:07:18;18.30;99.90
46732;DHT22;32477;51.474;5.696;2023-07-28T06:09:44;18.40;99.90
46732;DHT22;32477;51.474;5.696;2023-07-28T06:12:09;18.50;99.90
46732;DHT22;32477;51.474;5.696;2023-07-28T06:14:35;18.50;99.90
46732;DHT22;32477;51.474;5.696;2023-07-28T06:17:01;18.60;99.90
46732;DHT22;32477;51.474;5.696;2023-07-28T06:19:27;18.70;99.90
46732;DHT22;32477;51.474;5.696;2023-07-28T06:21:52;18.70;99.90
46732;DHT22;32477;51.474;5.696;2023-07-28T06:24:18;18.70;99.90
46732;DHT22;32477;51.474;5.696;2023-07-28T06:26:44;18.70;99.90
46732;DHT22;32477;51.474;5.696;2023-07-28T06:29:10;18.80;99.90
46732;DHT22;32477;51.474;5.696;2023-07-28T06:31:35;18.80;99.90
46732;DHT22;32477;51.474;5.696;2023-07-28T06:34:01;18.90;99.90
46732;DHT22;32477;51.474;5.696;2023-07-28T06:36:27;19.00;99.90
46732;DHT22;32477;51.474;5.696;2023-07-28T06:38:53;19.10;99.90
46732;DHT22;32477;51.474;5.696;2023-07-28T06:41:21;19.20;99.90
46732;DHT22;32477;51.474;5.696;2023-07-28T06:43:46;19.20;99.90
46732;DHT22;32477;51.474;5.696;2023-07-28T06:46:14;19.20;99.90
46732;DHT22;32477;51.474;5.696;2023-07-28T06:48:40;19.20;99.90
46732;DHT22;32477;51.474;5.696;2023-07-28T06:51:06;19.20;99.90
46732;DHT22;32477;51.474;5.696;2023-07-28T06:53:31;19.30;99.90
46732;DHT22;32477;51.474;5.696;2023-07-28T06:55:57;19.30;99.90
46732;DHT22;32477;51.474;5.696;2023-07-28T06:58:23;19.40;99.90
46732;DHT22;32477;51.474;5.696;2023-07-28T07:00:48;19.40;99.90
46732;DHT22;32477;51.474;5.696;2023-07-28T07:03:14;19.40;99.90
46732;DHT22;32477;51.474;5.696;2023-07-28T07:05:40;19.40;99.90
46732;DHT22;32477;51.474;5.696;2023-07-28T07:08:06;19.40;99.90
46732;DHT22;32477;51.474;5.696;2023-07-28T07:10:31;19.30;99.90
46732;DHT22;32477;51.474;5.696;2023-07-28T07:12:57;19.40;99.90
46732;DHT22;32477;51.474;5.696;2023-07-28T07:15:23;19.50;99.90
46732;DHT22;32477;51.474;5.696;2023-07-28T07:17:48;19.70;99.90
46732;DHT22;32477;51.474;5.696;2023-07-28T07:20:14;19.80;99.90
46732;DHT22;32477;51.474;5.696;2023-07-28T07:22:40;19.80;99.90
46732;DHT22;32477;51.474;5.696;2023-07-28T07:25:07;19.70;99.90
46732;DHT22;32477;51.474;5.696;2023-07-28T07:27:33;19.70;99.90
46732;DHT22;32477;51.474;5.696;2023-07-28T07:29:58;19.70;99.90
46732;DHT22;32477;51.474;5.696;2023-07-28T07:32:24;19.60;99.90
46732;DHT22;32477;51.474;5.696;2023-07-28T07:34:50;19.60;99.90
46732;DHT22;32477;51.474;5.696;2023-07-28T07:37:15;19.60;99.90
46732;DHT22;32477;51.474;5.696;2023-07-28T07:39:41;19.70;99.90
46732;DHT22;32477;51.474;5.696;2023-07-28T07:42:10;19.80;99.90
46732;DHT22;32477;51.474;5.696;2023-07-28T07:44:37;19.80;99.90
46732;DHT22;32477;51.474;5.696;2023-07-28T07:47:11;19.80;99.90
46732;DHT22;32477;51.474;5.696;2023-07-28T07:49:38;19.90;99.90
46732;DHT22;32477;51.474;5.696;2023-07-28T07:52:05;19.90;99.90
46732;DHT22;32477;51.474;5.696;2023-07-28T07:54:30;19.90;99.90
46732;DHT22;32477;51.474;5.696;2023-07-28T07:56:56;19.90;99.90
46732;DHT22;32477;51.474;5.696;2023-07-28T07:59:22;19.90;99.90
46732;DHT22;32477;51.474;5.696;2023-07-28T08:01:47;19.80;99.90
46732;DHT22;32477;51.474;5.696;2023-07-28T08:04:13;19.80;99.90
46732;DHT22;32477;51.474;5.696;2023-07-28T08:06:38;19.80;99.90
46732;DHT22;32477;51.474;5.696;2023-07-28T08:09:04;19.80;99.90
46732;DHT22;32477;51.474;5.696;2023-07-28T08:11:30;19.80;99.90
46732;DHT22;32477;51.474;5.696;2023-07-28T08:13:55;19.80;99.90
46732;DHT22;32477;51.474;5.696;2023-07-28T08:16:21;19.90;99.90
46732;DHT22;32477;51.474;5.696;2023-07-28T08:18:46;19.90;99.90
46732;DHT22;32477;51.474;5.696;2023-07-28T08:21:12;20.00;99.90
46732;DHT22;32477;51.474;5.696;2023-07-28T08:23:38;20.10;99.90
46732;DHT22;32477;51.474;5.696;2023-07-28T08:26:03;20.00;99.90
46732;DHT22;32477;51.474;5.696;2023-07-28T08:28:29;20.00;99.90
46732;DHT22;32477;51.474;5.696;2023-07-28T08:30:55;20.10;99.90
46732;DHT22;32477;51.474;5.696;2023-07-28T08:33:22;20.10;99.90
46732;DHT22;32477;51.474;5.696;2023-07-28T08:35:48;20.00;99.90
46732;DHT22;32477;51.474;5.696;2023-07-28T08:38:13;20.00;99.90
46732;DHT22;32477;51.474;5.696;2023-07-28T08:40:39;20.00;99.90
46732;DHT22;32477;51.474;5.696;2023-07-28T08:43:05;20.10;99.90
46732;DHT22;32477;51.474;5.696;2023-07-28T08:45:31;20.20;99.90
46732;DHT22;32477;51.474;5.696;2023-07-28T08:47:57;20.20;99.90
46732;DHT22;32477;51.474;5.696;2023-07-28T08:50:23;20.40;99.90
46732;DHT22;32477;51.474;5.696;2023-07-28T08:52:48;20.60;99.90
46732;DHT22;32477;51.474;5.696;2023-07-28T08:55:16;21.00;99.90
46732;DHT22;32477;51.474;5.696;2023-07-28T08:57:42;21.40;99.90
46732;DHT22;32477;51.474;5.696;2023-07-28T09:00:12;21.90;99.90
46732;DHT22;32477;51.474;5.696;2023-07-28T09:02:40;22.30;99.90
46732;DHT22;32477;51.474;5.696;2023-07-28T09:05:06;22.60;99.90
46732;DHT22;32477;51.474;5.696;2023-07-28T09:07:36;23.00;99.90
46732;DHT22;32477;51.474;5.696;2023-07-28T09:10:04;23.70;99.90
46732;DHT22;32477;51.474;5.696;2023-07-28T09:12:33;24.40;99.90
46732;DHT22;32477;51.474;5.696;2023-07-28T09:14:59;24.40;99.90
46732;DHT22;32477;51.474;5.696;2023-07-28T09:17:25;24.00;99.90
46732;DHT22;32477;51.474;5.696;2023-07-28T09:19:54;24.10;99.90
46732;DHT22;32477;51.474;5.696;2023-07-28T09:22:21;23.80;99.90
46732;DHT22;32477;51.474;5.696;2023-07-28T09:24:47;24.00;99.90
46732;DHT22;32477;51.474;5.696;2023-07-28T09:27:24;24.20;99.90
46732;DHT22;32477;51.474;5.696;2023-07-28T09:29:52;24.30;99.90
46732;DHT22;32477;51.474;5.696;2023-07-28T09:32:30;24.50;99.90
46732;DHT22;32477;51.474;5.696;2023-07-28T09:35:12;24.30;99.90
46732;DHT22;32477;51.474;5.696;2023-07-28T09:37:40;24.40;99.90
46732;DHT22;32477;51.474;5.696;2023-07-28T09:40:12;24.60;99.90
46732;DHT22;32477;51.474;5.696;2023-07-28T09:42:42;24.50;99.90
46732;DHT22;32477;51.474;5.696;2023-07-28T09:45:08;24.40;99.90
46732;DHT22;32477;51.474;5.696;2023-07-28T09:47:36;24.30;99.90
46732;DHT22;32477;51.474;5.696;2023-07-28T09:50:05;24.40;99.90
46732;DHT22;32477;51.474;5.696;2023-07-28T09:52:34;24.40;99.90
46732;DHT22;32477;51.474;5.696;2023-07-28T09:55:06;24.20;99.90
46732;DHT22;32477;51.474;5.696;2023-07-28T09:57:41;24.30;99.90
46732;DHT22;32477;51.474;5.696;2023-07-28T10:00:12;24.30;99.90
46732;DHT22;32477;51.474;5.696;2023-07-28T10:02:39;24.40;99.90
46732;DHT22;32477;51.474;5.696;2023-07-28T10:05:06;24.70;99.90
46732;DHT22;32477;51.474;5.696;2023-07-28T10:07:34;24.60;99.90
46732;DHT22;32477;51.474;5.696;2023-07-28T10:10:04;24.90;99.90
46732;DHT22;32477;51.474;5.696;2023-07-28T10:12:49;25.70;99.90
46732;DHT22;32477;51.474;5.696;2023-07-28T10:15:20;26.90;99.90
46732;DHT22;32477;51.474;5.696;2023-07-28T10:17:54;27.30;99.90
46732;DHT22;32477;51.474;5.696;2023-07-28T10:23:06;25.70;99.90
46732;DHT22;32477;51.474;5.696;2023-07-28T10:25:37;25.00;99.90
46732;DHT22;32477;51.474;5.696;2023-07-28T10:28:04;24.60;99.90
46732;DHT22;32477;51.474;5.696;2023-07-28T10:30:52;24.50;99.90
46732;DHT22;32477;51.474;5.696;2023-07-28T10:33:38;24.50;99.90
46732;DHT22;32477;51.474;5.696;2023-07-28T10:39:16;24.30;99.90
46732;DHT22;32477;51.474;5.696;2023-07-28T10:42:07;24.20;99.90
46732;DHT22;32477;51.474;5.696;2023-07-28T10:44:34;24.30;99.90
46732;DHT22;32477;51.474;5.696;2023-07-28T10:47:00;24.60;99.90
46732;DHT22;32477;51.474;5.696;2023-07-28T10:49:27;25.00;99.90
46732;DHT22;32477;51.474;5.696;2023-07-28T10:51:53;25.50;99.90
46732;DHT22;32477;51.474;5.696;2023-07-28T10:54:19;26.20;99.90
46732;DHT22;32477;51.474;5.696;2023-07-28T10:56:48;27.20;99.90
46732;DHT22;32477;51.474;5.696;2023-07-28T10:59:14;27.00;99.90
46732;DHT22;32477;51.474;5.696;2023-07-28T11:01:43;26.50;99.90
46732;DHT22;32477;51.474;5.696;2023-07-28T11:04:20;26.60;99.90
46732;DHT22;32477;51.474;5.696;2023-07-28T11:06:47;26.80;99.90
46732;DHT22;32477;51.474;5.696;2023-07-28T11:09:16;27.10;99.90
46732;DHT22;32477;51.474;5.696;2023-07-28T11:11:43;27.30;99.90
46732;DHT22;32477;51.474;5.696;2023-07-28T11:14:09;28.10;99.90
46732;DHT22;32477;51.474;5.696;2023-07-28T11:16:36;28.50;99.90
46732;DHT22;32477;51.474;5.696;2023-07-28T11:19:03;29.20;99.90
46732;DHT22;32477;51.474;5.696;2023-07-28T11:21:39;29.70;99.90
46732;DHT22;32477;51.474;5.696;2023-07-28T11:24:06;29.20;99.90
46732;DHT22;32477;51.474;5.696;2023-07-28T11:26:34;28.60;99.90
46732;DHT22;32477;51.474;5.696;2023-07-28T11:29:00;29.10;99.90
46732;DHT22;32477;51.474;5.696;2023-07-28T11:31:26;29.50;99.90
46732;DHT22;32477;51.474;5.696;2023-07-28T11:33:53;29.40;99.90
46732;DHT22;32477;51.474;5.696;2023-07-28T11:36:25;30.00;99.90
46732;DHT22;32477;51.474;5.696;2023-07-28T11:38:55;30.60;99.90
46732;DHT22;32477;51.474;5.696;2023-07-28T11:41:22;30.30;99.90
46732;DHT22;32477;51.474;5.696;2023-07-28T11:43:49;30.50;99.90
46732;DHT22;32477;51.474;5.696;2023-07-28T11:51:51;31.20;99.50
46732;DHT22;32477;51.474;5.696;2023-07-28T11:54:23;29.80;99.90
46732;DHT22;32477;51.474;5.696;2023-07-28T11:56:51;29.30;99.90
46732;DHT22;32477;51.474;5.696;2023-07-28T11:59:18;29.60;99.90
46732;DHT22;32477;51.474;5.696;2023-07-28T12:01:57;29.30;99.90
46732;DHT22;32477;51.474;5.696;2023-07-28T12:04:30;29.30;99.90
46732;DHT22;32477;51.474;5.696;2023-07-28T12:09:29;28.40;99.90
46732;DHT22;32477;51.474;5.696;2023-07-28T12:11:56;27.70;99.90
46732;DHT22;32477;51.474;5.696;2023-07-28T12:14:35;27.30;99.90
46732;DHT22;32477;51.474;5.696;2023-07-28T12:17:00;27.00;99.90
46732;DHT22;32477;51.474;5.696;2023-07-28T12:19:29;26.80;99.90
46732;DHT22;32477;51.474;5.696;2023-07-28T12:21:54;26.80;99.90
46732;DHT22;32477;51.474;5.696;2023-07-28T12:24:20;26.80;99.90
46732;DHT22;32477;51.474;5.696;2023-07-28T12:26:46;26.70;99.90
46732;DHT22;32477;51.474;5.696;2023-07-28T12:29:13;26.50;99.90
46732;DHT22;32477;51.474;5.696;2023-07-28T12:31:39;26.20;99.90
46732;DHT22;32477;51.474;5.696;2023-07-28T12:34:05;26.00;99.90
46732;DHT22;32477;51.474;5.696;2023-07-28T12:36:30;25.60;99.90
46732;DHT22;32477;51.474;5.696;2023-07-28T12:38:56;25.50;99.90
46732;DHT22;32477;51.474;5.696;2023-07-28T12:41:22;25.40;99.90
46732;DHT22;32477;51.474;5.696;2023-07-28T12:43:48;25.10;99.90
46732;DHT22;32477;51.474;5.696;2023-07-28T12:46:13;25.20;99.90
46732;DHT22;32477;51.474;5.696;2023-07-28T12:48:39;25.20;99.90
46732;DHT22;32477;51.474;5.696;2023-07-28T12:51:06;25.40;99.90
46732;DHT22;32477;51.474;5.696;2023-07-28T12:53:31;25.80;99.90
46732;DHT22;32477;51.474;5.696;2023-07-28T12:55:57;26.10;99.90
46732;DHT22;32477;51.474;5.696;2023-07-28T12:58:23;26.20;99.90
46732;DHT22;32477;51.474;5.696;2023-07-28T13:00:49;26.30;99.90
46732;DHT22;32477;51.474;5.696;2023-07-28T13:03:14;26.60;99.90
46732;DHT22;32477;51.474;5.696;2023-07-28T13:05:40;27.20;99.90
46732;DHT22;32477;51.474;5.696;2023-07-28T13:08:08;27.60;99.90
46732;DHT22;32477;51.474;5.696;2023-07-28T13:10:34;28.70;99.90
46732;DHT22;32477;51.474;5.696;2023-07-28T13:13:00;30.00;99.90
46732;DHT22;32477;51.474;5.696;2023-07-28T13:15:25;29.90;99.90
46732;DHT22;32477;51.474;5.696;2023-07-28T13:17:51;29.90;99.90
46732;DHT22;32477;51.474;5.696;2023-07-28T13:20:16;30.50;99.90
46732;DHT22;32477;51.474;5.696;2023-07-28T13:22:42;30.20;99.90
46732;DHT22;32477;51.474;5.696;2023-07-28T13:25:08;29.60;99.90
46732;DHT22;32477;51.474;5.696;2023-07-28T13:27:34;29.20;99.90
46732;DHT22;32477;51.474;5.696;2023-07-28T13:29:59;28.90;99.90
46732;DHT22;32477;51.474;5.696;2023-07-28T13:32:25;28.40;99.90
46732;DHT22;32477;51.474;5.696;2023-07-28T13:34:51;27.90;99.90
46732;DHT22;32477;51.474;5.696;2023-07-28T13:37:18;27.60;99.90
46732;DHT22;32477;51.474;5.696;2023-07-28T13:39:45;27.70;99.90
46732;DHT22;32477;51.474;5.696;2023-07-28T13:42:11;27.70;99.90
46732;DHT22;32477;51.474;5.696;2023-07-28T13:44:38;27.40;99.90
46732;DHT22;32477;51.474;5.696;2023-07-28T13:47:04;27.70;99.90
46732;DHT22;32477;51.474;5.696;2023-07-28T13:49:31;28.00;99.90
46732;DHT22;32477;51.474;5.696;2023-07-28T13:51:56;28.10;99.90
46732;DHT22;32477;51.474;5.696;2023-07-28T13:54:22;28.40;99.90
46732;DHT22;32477;51.474;5.696;2023-07-28T13:56:48;28.00;99.90
46732;DHT22;32477;51.474;5.696;2023-07-28T13:59:13;27.60;99.90
46732;DHT22;32477;51.474;5.696;2023-07-28T14:01:39;27.30;99.90
46732;DHT22;32477;51.474;5.696;2023-07-28T14:04:05;27.10;99.90
46732;DHT22;32477;51.474;5.696;2023-07-28T14:06:30;26.80;99.90
46732;DHT22;32477;51.474;5.696;2023-07-28T14:08:56;26.30;99.90
46732;DHT22;32477;51.474;5.696;2023-07-28T14:11:21;26.10;99.90
46732;DHT22;32477;51.474;5.696;2023-07-28T14:13:47;26.10;99.90
46732;DHT22;32477;51.474;5.696;2023-07-28T14:16:13;26.20;99.90
46732;DHT22;32477;51.474;5.696;2023-07-28T14:18:38;26.10;99.90
46732;DHT22;32477;51.474;5.696;2023-07-28T14:21:05;26.10;99.90
46732;DHT22;32477;51.474;5.696;2023-07-28T14:23:31;26.20;99.90
46732;DHT22;32477;51.474;5.696;2023-07-28T14:25:57;26.40;99.90
46732;DHT22;32477;51.474;5.696;2023-07-28T14:28:23;26.20;99.90
46732;DHT22;32477;51.474;5.696;2023-07-28T14:30:49;25.80;99.90
46732;DHT22;32477;51.474;5.696;2023-07-28T14:33:17;25.60;99.90
46732;DHT22;32477;51.474;5.696;2023-07-28T14:35:47;25.30;99.90
46732;DHT22;32477;51.474;5.696;2023-07-28T14:38:13;25.00;99.90
46732;DHT22;32477;51.474;5.696;2023-07-28T14:40:39;24.90;99.90
46732;DHT22;32477;51.474;5.696;2023-07-28T14:43:06;24.80;99.90
46732;DHT22;32477;51.474;5.696;2023-07-28T14:45:32;24.80;99.90
46732;DHT22;32477;51.474;5.696;2023-07-28T14:47:58;25.10;99.90
46732;DHT22;32477;51.474;5.696;2023-07-28T14:50:23;25.70;99.90
46732;DHT22;32477;51.474;5.696;2023-07-28T14:52:49;26.30;99.90
46732;DHT22;32477;51.474;5.696;2023-07-28T14:55:15;26.50;99.90
46732;DHT22;32477;51.474;5.696;2023-07-28T14:57:40;26.70;99.90
46732;DHT22;32477;51.474;5.696;2023-07-28T15:00:07;26.70;99.90
46732;DHT22;32477;51.474;5.696;2023-07-28T15:02:33;26.30;99.90
46732;DHT22;32477;51.474;5.696;2023-07-28T15:04:59;26.00;99.90
46732;DHT22;32477;51.474;5.696;2023-07-28T15:07:24;25.70;99.90
46732;DHT22;32477;51.474;5.696;2023-07-28T15:09:50;25.40;99.90
46732;DHT22;32477;51.474;5.696;2023-07-28T15:12:16;25.20;99.90
46732;DHT22;32477;51.474;5.696;2023-07-28T15:14:41;25.00;99.90
46732;DHT22;32477;51.474;5.696;2023-07-28T15:17:07;24.80;99.90
46732;DHT22;32477;51.474;5.696;2023-07-28T15:19:32;24.90;99.90
46732;DHT22;32477;51.474;5.696;2023-07-28T15:21:58;25.20;99.90
46732;DHT22;32477;51.474;5.696;2023-07-28T15:24:24;25.20;99.90
46732;DHT22;32477;51.474;5.696;2023-07-28T15:26:49;25.30;99.90
46732;DHT22;32477;51.474;5.696;2023-07-28T15:29:17;25.40;99.90
46732;DHT22;32477;51.474;5.696;2023-07-28T15:31:43;25.70;99.90
46732;DHT22;32477;51.474;5.696;2023-07-28T15:34:09;25.60;99.90
46732;DHT22;32477;51.474;5.696;2023-07-28T15:36:35;25.50;99.90
46732;DHT22;32477;51.474;5.696;2023-07-28T15:39:00;25.60;99.90
46732;DHT22;32477;51.474;5.696;2023-07-28T15:41:26;25.40;99.90
46732;DHT22;32477;51.474;5.696;2023-07-28T15:43:52;25.20;99.90
46732;DHT22;32477;51.474;5.696;2023-07-28T15:46:17;25.00;99.90
46732;DHT22;32477;51.474;5.696;2023-07-28T15:48:43;24.90;99.90